createdAt,value
2023-04-04T00:00:39.155Z,-0.14
2023-04-04T00:03:07.285Z,-0.17
2023-04-04T00:05:35.612Z,-0.19
2023-04-04T00:08:03.910Z,-0.17
2023-04-04T00:10:33.037Z,-0.18
2023-04-04T00:13:01.205Z,-0.21
2023-04-04T00:15:28.980Z,-0.21
2023-04-04T00:17:57.235Z,-0.17
2023-04-04T00:20:25.124Z,-0.22
2023-04-04T00:22:52.861Z,-0.27
2023-04-04T00:25:20.708Z,-0.29
2023-04-04T00:27:50.270Z,-0.30
2023-04-04T00:30:18.058Z,-0.33
2023-04-04T00:32:45.950Z,-0.36
2023-04-04T00:35:13.809Z,-0.37
2023-04-04T00:37:41.548Z,-0.40
2023-04-04T00:40:10.204Z,-0.43
2023-04-04T00:42:38.346Z,-0.45
2023-04-04T00:45:08.973Z,-0.45
2023-04-04T00:47:38.824Z,-0.55
2023-04-04T00:50:08.413Z,-0.55
2023-04-04T00:52:37.306Z,-0.59
2023-04-04T00:55:06.416Z,-0.63
2023-04-04T00:57:35.386Z,-0.65
2023-04-04T01:00:05.270Z,-0.67
2023-04-04T01:02:34.491Z,-0.71
2023-04-04T01:05:04.414Z,-0.70
2023-04-04T01:07:32.926Z,-0.73
2023-04-04T01:10:02.413Z,-0.73
2023-04-04T01:12:31.040Z,-0.76
2023-04-04T01:14:58.810Z,-0.79
2023-04-04T01:17:27.585Z,-0.75
2023-04-04T01:20:04.299Z,-0.75
2023-04-04T01:22:39.890Z,-0.76
2023-04-04T01:25:10.081Z,-0.82
2023-04-04T01:27:42.155Z,-0.81
2023-04-04T01:30:16.876Z,-0.85
2023-04-04T01:32:49.021Z,-0.87
2023-04-04T01:35:24.697Z,-0.91
2023-04-04T01:37:59.433Z,-0.95
2023-04-04T01:40:35.010Z,-0.98
2023-04-04T01:43:04.401Z,-0.98
2023-04-04T01:45:35.371Z,-1.01
2023-04-04T01:48:08.229Z,-1.04
2023-04-04T01:50:36.191Z,-1.05
2023-04-04T01:53:04.005Z,-1.08
2023-04-04T01:55:32.153Z,-1.07
2023-04-04T01:58:00.637Z,-1.08
2023-04-04T02:00:29.823Z,-1.12
2023-04-04T02:02:57.608Z,-1.13
2023-04-04T02:05:25.709Z,-1.15
2023-04-04T02:07:53.462Z,-1.13
2023-04-04T02:10:31.016Z,-1.16
2023-04-04T02:12:59.597Z,-1.19
2023-04-04T02:15:29.043Z,-1.17
2023-04-04T02:17:56.903Z,-1.19
2023-04-04T02:20:24.689Z,-1.23
2023-04-04T02:22:53.955Z,-1.24
2023-04-04T02:25:23.028Z,-1.30
2023-04-04T02:27:50.912Z,-1.29
2023-04-04T02:30:19.432Z,-1.31
2023-04-04T02:32:50.257Z,-1.32
2023-04-04T02:35:20.603Z,-1.35
2023-04-04T02:37:48.518Z,-1.37
2023-04-04T02:40:24.132Z,-1.41
2023-04-04T02:42:51.921Z,-1.40
2023-04-04T02:45:21.540Z,-1.38
2023-04-04T02:48:03.761Z,-1.34
2023-04-04T02:50:40.513Z,-1.38
2023-04-04T02:53:09.855Z,-1.39
2023-04-04T02:55:38.065Z,-1.44
2023-04-04T02:58:06.145Z,-1.46
2023-04-04T03:00:34.007Z,-1.44
2023-04-04T03:03:03.891Z,-1.43
2023-04-04T03:05:35.200Z,-1.46
2023-04-04T03:08:04.729Z,-1.46
2023-04-04T03:10:32.615Z,-1.49
2023-04-04T03:13:00.438Z,-1.47
2023-04-04T03:15:30.609Z,-1.46
2023-04-04T03:18:00.092Z,-1.46
2023-04-04T03:20:31.360Z,-1.46
2023-04-04T03:22:59.495Z,-1.48
2023-04-04T03:25:27.682Z,-1.51
2023-04-04T03:27:55.884Z,-1.49
2023-04-04T03:30:28.041Z,-1.51
2023-04-04T03:32:56.629Z,-1.54
2023-04-04T03:35:24.531Z,-1.59
2023-04-04T03:37:54.702Z,-1.60
2023-04-04T03:40:22.503Z,-1.61
2023-04-04T03:42:51.454Z,-1.64
2023-04-04T03:45:21.062Z,-1.66
2023-04-04T03:47:48.939Z,-1.65
2023-04-04T03:50:16.858Z,-1.64
2023-04-04T03:52:51.133Z,-1.64
2023-04-04T03:55:21.136Z,-1.62
2023-04-04T03:57:49.573Z,-1.66
2023-04-04T04:00:18.244Z,-1.67
2023-04-04T04:02:46.470Z,-1.69
2023-04-04T04:05:14.513Z,-1.71
2023-04-04T04:07:44.515Z,-1.73
2023-04-04T04:10:14.008Z,-1.78
2023-04-04T04:12:43.127Z,-1.75
2023-04-04T04:15:11.646Z,-1.76
2023-04-04T04:17:42.228Z,-1.74
2023-04-04T04:20:12.841Z,-1.72
2023-04-04T04:22:47.226Z,-1.77
2023-04-04T04:25:15.838Z,-1.76
2023-04-04T04:27:49.645Z,-1.75
2023-04-04T04:30:20.844Z,-1.77
2023-04-04T04:32:50.320Z,-1.77
2023-04-04T04:35:20.483Z,-1.80
2023-04-04T04:37:48.949Z,-1.85
2023-04-04T04:40:18.027Z,-1.82
2023-04-04T04:42:56.886Z,-1.87
2023-04-04T04:45:25.614Z,-1.86
2023-04-04T04:48:05.101Z,-1.83
2023-04-04T04:50:35.543Z,-1.83
2023-04-04T04:53:03.730Z,-1.84
2023-04-04T04:55:31.930Z,-1.81
2023-04-04T04:58:06.913Z,-1.80
2023-04-04T05:00:34.841Z,-1.76
2023-04-04T05:03:02.622Z,-1.76
2023-04-04T05:05:38.868Z,-1.76
2023-04-04T05:08:11.182Z,-1.76
2023-04-04T05:10:46.000Z,-1.72
2023-04-04T05:13:15.114Z,-1.72
2023-04-04T05:15:48.328Z,-1.66
2023-04-04T05:18:17.366Z,-1.63
2023-04-04T05:20:51.974Z,-1.57
2023-04-04T05:23:19.818Z,-1.47
2023-04-04T05:25:50.004Z,-1.39
2023-04-04T05:28:19.203Z,-1.34
2023-04-04T05:30:47.046Z,-1.31
2023-04-04T05:33:18.833Z,-1.25
2023-04-04T05:35:56.703Z,-1.15
2023-04-04T05:38:24.626Z,-1.08
2023-04-04T05:40:54.599Z,-1.02
2023-04-04T05:43:25.122Z,-0.96
2023-04-04T05:46:00.024Z,-0.89
2023-04-04T05:48:29.249Z,-0.82
2023-04-04T05:50:57.318Z,-0.79
2023-04-04T05:53:36.861Z,-0.70
2023-04-04T05:56:05.772Z,-0.65
2023-04-04T05:58:36.800Z,-0.57
2023-04-04T06:01:08.052Z,-0.49
2023-04-04T06:03:36.946Z,-0.46
2023-04-04T06:06:08.136Z,-0.39
2023-04-04T06:08:50.281Z,-0.30
2023-04-04T06:11:21.758Z,-0.26
2023-04-04T06:13:51.211Z,-0.21
2023-04-04T06:16:21.096Z,-0.17
2023-04-04T06:18:49.470Z,-0.09
2023-04-04T06:21:17.691Z,-0.02
2023-04-04T06:23:45.719Z,0.08
2023-04-04T06:26:14.812Z,0.15
2023-04-04T06:28:49.214Z,0.25
2023-04-04T06:31:21.222Z,0.34
2023-04-04T06:33:50.140Z,0.45
2023-04-04T06:36:19.828Z,0.54
2023-04-04T06:38:48.592Z,0.64
2023-04-04T06:41:21.874Z,0.67
2023-04-04T06:43:51.498Z,0.79
2023-04-04T06:46:19.372Z,0.84
2023-04-04T06:48:49.299Z,0.88
2023-04-04T06:51:18.440Z,1.00
2023-04-04T06:53:47.633Z,1.10
2023-04-04T06:56:15.398Z,1.22
2023-04-04T06:58:43.152Z,1.33
2023-04-04T07:01:11.745Z,1.40
2023-04-04T07:03:39.562Z,1.50
2023-04-04T07:06:08.644Z,1.59
2023-04-04T07:08:37.047Z,1.70
2023-04-04T07:11:05.204Z,1.80
2023-04-04T07:13:32.930Z,1.82
2023-04-04T07:16:00.701Z,1.90
2023-04-04T07:18:28.373Z,1.97
2023-04-04T07:20:56.123Z,2.12
2023-04-04T07:23:25.543Z,2.14
2023-04-04T07:25:53.320Z,2.13
2023-04-04T07:28:21.046Z,2.16
2023-04-04T07:30:48.761Z,2.28
2023-04-04T07:33:16.477Z,2.34
2023-04-04T07:35:44.233Z,2.38
2023-04-04T07:38:11.948Z,2.54
2023-04-04T07:40:41.562Z,2.64
2023-04-04T07:43:09.617Z,2.65
2023-04-04T07:45:37.353Z,2.72
2023-04-04T07:48:05.676Z,2.78
2023-04-04T07:50:33.441Z,2.84
2023-04-04T07:53:01.522Z,2.90
2023-04-04T07:55:29.266Z,2.93
2023-04-04T07:57:59.005Z,3.06
2023-04-04T08:00:26.998Z,3.21
2023-04-04T08:02:56.257Z,3.26
2023-04-04T08:05:24.519Z,3.35
2023-04-04T08:07:52.592Z,3.56
2023-04-04T08:10:22.581Z,3.78
2023-04-04T08:12:50.464Z,3.82
2023-04-04T08:15:19.572Z,3.66
2023-04-04T08:17:47.484Z,3.72
2023-04-04T08:20:15.530Z,3.83
2023-04-04T08:22:43.764Z,4.01
2023-04-04T08:25:11.937Z,3.99
2023-04-04T08:27:43.849Z,4.00
2023-04-04T08:30:13.365Z,4.39
2023-04-04T08:32:44.179Z,4.80
2023-04-04T08:35:12.259Z,5.03
2023-04-04T08:37:45.200Z,5.16
2023-04-04T08:40:13.561Z,5.10
2023-04-04T08:42:43.213Z,5.24
2023-04-04T08:45:12.803Z,5.47
2023-04-04T08:47:43.135Z,5.54
2023-04-04T08:50:11.643Z,5.51
2023-04-04T08:52:41.699Z,5.75
2023-04-04T08:55:10.277Z,6.21
2023-04-04T08:57:38.081Z,6.20
2023-04-04T09:00:07.681Z,5.92
2023-04-04T09:02:47.593Z,5.59
2023-04-04T09:05:15.557Z,5.60
2023-04-04T09:07:44.889Z,5.75
2023-04-04T09:10:13.263Z,5.56
2023-04-04T09:12:44.202Z,5.42
2023-04-04T09:15:12.769Z,5.58
2023-04-04T09:17:41.885Z,5.78
2023-04-04T09:20:37.406Z,6.10
2023-04-04T09:23:07.848Z,6.68
2023-04-04T09:25:35.939Z,6.79
2023-04-04T09:28:05.553Z,6.56
2023-04-04T09:30:35.454Z,6.65
2023-04-04T09:33:06.141Z,6.69
2023-04-04T09:35:36.422Z,7.13
2023-04-04T09:38:04.526Z,7.47
2023-04-04T09:40:32.627Z,8.05
2023-04-04T09:43:04.660Z,8.49
2023-04-04T09:45:33.466Z,8.85
2023-04-04T09:48:01.330Z,8.99
2023-04-04T09:50:30.662Z,9.53
2023-04-04T09:53:00.178Z,9.73
2023-04-04T09:55:38.358Z,10.06
2023-04-04T09:58:14.917Z,10.15
2023-04-04T10:00:44.958Z,10.14
2023-04-04T10:03:15.143Z,9.49
2023-04-04T10:05:46.696Z,9.52
2023-04-04T10:08:16.783Z,9.38
2023-04-04T10:11:02.496Z,8.52
2023-04-04T10:13:36.799Z,8.54
2023-04-04T10:16:05.638Z,8.85
2023-04-04T10:18:34.905Z,8.90
2023-04-04T10:21:15.396Z,9.08
2023-04-04T10:23:47.448Z,9.59
2023-04-04T10:26:15.414Z,9.74
2023-04-04T10:28:43.653Z,9.25
2023-04-04T10:31:18.420Z,9.15
2023-04-04T10:33:53.436Z,8.76
2023-04-04T10:36:25.495Z,9.46
2023-04-04T10:39:04.208Z,9.99
2023-04-04T10:41:33.419Z,10.56
2023-04-04T10:44:10.578Z,10.47
2023-04-04T10:46:42.732Z,9.98
2023-04-04T10:49:11.657Z,9.08
2023-04-04T10:51:49.184Z,8.45
2023-04-04T10:54:23.822Z,8.18
2023-04-04T10:56:53.883Z,8.14
2023-04-04T10:59:21.900Z,8.18
2023-04-04T11:01:51.963Z,8.51
2023-04-04T11:04:22.038Z,8.01
2023-04-04T11:07:14.449Z,7.53
2023-04-04T11:09:53.031Z,7.39
2023-04-04T11:12:28.407Z,7.09
2023-04-04T11:15:08.400Z,7.05
2023-04-04T11:17:43.968Z,7.15
2023-04-04T11:20:12.078Z,7.16
2023-04-04T11:22:43.811Z,7.65
2023-04-04T11:25:30.515Z,7.50
2023-04-04T11:27:59.162Z,7.78
2023-04-04T11:30:28.443Z,7.81
2023-04-04T11:33:07.029Z,7.81
2023-04-04T11:35:39.612Z,7.81
2023-04-04T11:38:16.872Z,8.36
2023-04-04T11:40:54.407Z,8.35
2023-04-04T11:43:24.949Z,8.86
2023-04-04T11:45:52.805Z,8.69
2023-04-04T11:48:21.715Z,8.57
2023-04-04T11:50:51.374Z,8.38
2023-04-04T11:53:21.047Z,8.43
2023-04-04T11:55:51.485Z,8.97
2023-04-04T11:58:20.346Z,9.86
2023-04-04T12:00:48.118Z,10.83
2023-04-04T12:03:18.470Z,11.36
2023-04-04T12:05:47.893Z,11.71
2023-04-04T12:08:17.911Z,12.20
2023-04-04T12:10:47.016Z,12.46
2023-04-04T12:13:14.717Z,12.31
2023-04-04T12:15:43.973Z,11.46
2023-04-04T12:18:11.825Z,12.04
2023-04-04T12:20:43.621Z,12.76
2023-04-04T12:23:12.090Z,12.15
2023-04-04T12:25:44.815Z,11.10
2023-04-04T12:28:15.000Z,10.55
2023-04-04T12:30:43.495Z,9.94
2023-04-04T12:33:11.396Z,9.47
2023-04-04T12:35:39.676Z,10.06
2023-04-04T12:38:10.595Z,11.05
2023-04-04T12:40:39.625Z,10.91
2023-04-04T12:43:08.881Z,10.85
2023-04-04T12:45:41.763Z,10.99
2023-04-04T12:48:13.698Z,11.96
2023-04-04T12:50:52.601Z,12.45
2023-04-04T12:53:28.916Z,12.22
2023-04-04T12:56:03.106Z,12.54
2023-04-04T12:58:34.241Z,13.12
2023-04-04T13:01:06.859Z,13.50
2023-04-04T13:03:35.383Z,13.62
2023-04-04T13:06:03.734Z,13.48
2023-04-04T13:08:31.768Z,12.65
2023-04-04T13:11:02.829Z,12.31
2023-04-04T13:13:35.517Z,12.88
2023-04-04T13:16:06.259Z,13.86
2023-04-04T13:18:37.346Z,14.71
2023-04-04T13:21:05.702Z,14.72
2023-04-04T13:23:34.109Z,14.65
2023-04-04T13:26:01.860Z,13.49
2023-04-04T13:28:29.562Z,12.21
2023-04-04T13:30:57.312Z,11.20
2023-04-04T13:33:26.601Z,10.52
2023-04-04T13:35:54.548Z,10.66
2023-04-04T13:38:27.299Z,11.61
2023-04-04T13:40:55.347Z,12.60
2023-04-04T13:43:23.234Z,13.41
2023-04-04T13:45:52.959Z,14.04
2023-04-04T13:48:20.753Z,14.66
2023-04-04T13:50:51.402Z,14.04
2023-04-04T13:53:19.647Z,14.01
2023-04-04T13:56:13.241Z,13.73
2023-04-04T13:58:35.045Z,13.14
2023-04-04T14:01:04.252Z,12.51
2023-04-04T14:03:32.525Z,11.82
2023-04-04T14:06:09.241Z,11.90
2023-04-04T14:08:38.381Z,12.45
2023-04-04T14:11:06.621Z,12.80
2023-04-04T14:13:34.393Z,12.73
2023-04-04T14:16:02.179Z,12.63
2023-04-04T14:18:29.910Z,12.48
2023-04-04T14:20:57.758Z,12.08
2023-04-04T14:23:27.134Z,11.72
2023-04-04T14:25:54.928Z,11.49
2023-04-04T14:28:22.646Z,11.63
2023-04-04T14:30:51.523Z,11.04
2023-04-04T14:33:19.307Z,10.79
2023-04-04T14:35:46.991Z,10.83
2023-04-04T14:38:14.701Z,10.41
2023-04-04T14:40:43.857Z,10.52
2023-04-04T14:43:11.631Z,10.68
2023-04-04T14:45:39.859Z,11.08
2023-04-04T14:48:07.869Z,11.55
2023-04-04T14:50:36.403Z,11.52
2023-04-04T14:53:05.038Z,11.31
2023-04-04T14:55:32.721Z,11.01
2023-04-04T14:58:03.193Z,10.35
2023-04-04T15:00:31.443Z,9.95
2023-04-04T15:02:59.430Z,10.15
2023-04-04T15:05:27.235Z,9.78
2023-04-04T15:07:55.525Z,9.84
2023-04-04T15:10:23.968Z,10.14
2023-04-04T15:12:51.855Z,10.26
2023-04-04T15:15:23.144Z,9.88
2023-04-04T15:17:52.001Z,9.92
2023-04-04T15:20:21.583Z,9.41
2023-04-04T15:22:49.285Z,8.78
2023-04-04T15:25:17.041Z,8.63
2023-04-04T15:27:44.807Z,8.82
2023-04-04T15:30:14.073Z,8.98
2023-04-04T15:32:43.372Z,8.99
2023-04-04T15:35:17.464Z,8.88
2023-04-04T15:37:45.209Z,8.91
2023-04-04T15:40:13.384Z,9.08
2023-04-04T15:42:41.299Z,8.98
2023-04-04T15:45:10.164Z,8.88
2023-04-04T15:47:38.228Z,8.92
2023-04-04T15:50:08.918Z,9.03
2023-04-04T15:52:36.852Z,9.44
2023-04-04T15:55:04.941Z,9.44
2023-04-04T15:57:32.725Z,9.54
2023-04-04T16:00:00.431Z,9.45
2023-04-04T16:02:28.260Z,9.38
2023-04-04T16:04:57.386Z,9.14
2023-04-04T16:07:26.547Z,8.88
2023-04-04T16:09:54.436Z,8.57
2023-04-04T16:12:22.413Z,8.22
2023-04-04T16:14:50.257Z,8.05
2023-04-04T16:17:17.985Z,7.67
2023-04-04T16:19:46.636Z,7.50
2023-04-04T16:22:15.238Z,7.26
2023-04-04T16:24:44.476Z,7.19
2023-04-04T16:27:12.205Z,7.05
2023-04-04T16:29:39.952Z,6.92
2023-04-04T16:32:08.189Z,6.81
2023-04-04T16:34:38.788Z,6.59
2023-04-04T16:37:06.721Z,6.51
2023-04-04T16:39:34.437Z,6.41
2023-04-04T16:42:03.644Z,6.36
2023-04-04T16:44:31.946Z,6.22
2023-04-04T16:46:59.915Z,6.18
2023-04-04T16:49:27.642Z,6.14
2023-04-04T16:51:55.329Z,6.08
2023-04-04T16:54:23.058Z,6.08
2023-04-04T16:56:51.020Z,6.06
2023-04-04T16:59:28.918Z,6.02
2023-04-04T17:01:56.628Z,5.98
2023-04-04T17:04:24.499Z,5.88
2023-04-04T17:06:52.259Z,5.82
2023-04-04T17:09:19.994Z,5.68
2023-04-04T17:11:47.715Z,5.58
2023-04-04T17:14:15.442Z,5.51
2023-04-04T17:16:44.814Z,5.47
2023-04-04T17:19:12.505Z,5.35
2023-04-04T17:21:40.243Z,5.31
2023-04-04T17:24:08.046Z,5.18
2023-04-04T17:26:46.440Z,5.08
2023-04-04T17:29:15.451Z,4.99
2023-04-04T17:31:48.747Z,4.92
2023-04-04T17:34:18.345Z,4.83
2023-04-04T17:36:47.011Z,4.73
2023-04-04T17:39:15.093Z,4.59
2023-04-04T17:41:43.456Z,4.48
2023-04-04T17:44:11.520Z,4.35
2023-04-04T17:46:40.572Z,4.23
2023-04-04T17:49:10.430Z,4.15
2023-04-04T17:51:38.497Z,4.00
2023-04-04T17:54:06.617Z,3.89
2023-04-04T17:56:34.392Z,3.80
2023-04-04T17:59:02.293Z,3.66
2023-04-04T18:01:30.650Z,3.51
2023-04-04T18:03:58.550Z,3.45
2023-04-04T18:06:29.251Z,3.32
2023-04-04T18:08:57.333Z,3.21
2023-04-04T18:11:25.243Z,3.13
2023-04-04T18:13:55.451Z,3.00
2023-04-04T18:16:23.759Z,2.86
2023-04-04T18:18:51.771Z,2.74
2023-04-04T18:21:19.836Z,2.65
2023-04-04T18:23:51.498Z,2.50
2023-04-04T18:26:19.419Z,2.36
2023-04-04T18:28:50.019Z,2.28
2023-04-04T18:31:17.930Z,2.21
2023-04-04T18:33:49.669Z,2.15
2023-04-04T18:36:18.856Z,1.87
2023-04-04T18:38:46.889Z,1.69
2023-04-04T18:41:17.389Z,1.62
2023-04-04T18:43:45.341Z,1.51
2023-04-04T18:46:13.159Z,1.46
2023-04-04T18:48:44.249Z,1.41
2023-04-04T18:51:12.254Z,1.40
2023-04-04T18:53:39.963Z,1.25
2023-04-04T18:56:10.113Z,1.19
2023-04-04T18:58:39.171Z,1.20
2023-04-04T19:01:09.527Z,1.12
2023-04-04T19:03:42.737Z,1.16
2023-04-04T19:06:13.239Z,1.02
2023-04-04T19:08:42.322Z,0.91
2023-04-04T19:11:10.612Z,0.88
2023-04-04T19:13:39.833Z,0.86
2023-04-04T19:16:07.806Z,0.82
2023-04-04T19:18:35.903Z,0.76
2023-04-04T19:21:05.508Z,0.77
2023-04-04T19:23:34.753Z,0.75
2023-04-04T19:26:02.592Z,0.74
2023-04-04T19:28:31.422Z,0.66
2023-04-04T19:31:01.866Z,0.55
2023-04-04T19:33:33.366Z,0.60
2023-04-04T19:36:07.828Z,0.59
2023-04-04T19:38:36.919Z,0.57
2023-04-04T19:41:09.054Z,0.63
2023-04-04T19:43:41.804Z,0.61
2023-04-04T19:46:12.966Z,0.63
2023-04-04T19:48:48.497Z,0.57
2023-04-04T19:51:38.796Z,0.50
2023-04-04T19:54:09.564Z,0.47
2023-04-04T19:56:38.686Z,0.41
2023-04-04T19:59:09.225Z,0.45
2023-04-04T20:01:44.647Z,0.40
2023-04-04T20:04:15.185Z,0.40
2023-04-04T20:06:43.027Z,0.37
2023-04-04T20:09:14.339Z,0.32
2023-04-04T20:11:42.338Z,0.24
2023-04-04T20:14:11.196Z,0.23
2023-04-04T20:16:48.064Z,0.23
2023-04-04T20:19:17.269Z,0.18
2023-04-04T20:21:45.121Z,0.07
2023-04-04T20:24:18.021Z,0.01
2023-04-04T20:26:54.609Z,0.02
2023-04-04T20:29:25.336Z,0.00
2023-04-04T20:31:56.376Z,0.03
2023-04-04T20:34:33.906Z,-0.01
2023-04-04T20:37:05.025Z,-0.03
2023-04-04T20:39:38.830Z,-0.05
2023-04-04T20:42:20.115Z,-0.05
2023-04-04T20:44:48.060Z,-0.04
2023-04-04T20:47:42.704Z,-0.02
2023-04-04T20:50:46.214Z,-0.01
2023-04-04T20:53:19.443Z,-0.06
2023-04-04T20:55:47.262Z,-0.08
2023-04-04T20:58:38.972Z,-0.07
2023-04-04T21:01:10.226Z,-0.07
2023-04-04T21:03:40.101Z,-0.08
2023-04-04T21:06:13.158Z,-0.08
2023-04-04T21:08:44.464Z,-0.09
2023-04-04T21:11:14.039Z,-0.12
2023-04-04T21:13:43.283Z,-0.10
2023-04-04T21:16:12.724Z,-0.11
2023-04-04T21:18:42.484Z,-0.15
2023-04-04T21:21:13.343Z,-0.14
2023-04-04T21:23:46.832Z,-0.16
2023-04-04T21:26:29.484Z,-0.23
2023-04-04T21:29:00.871Z,-0.30
2023-04-04T21:31:34.974Z,-0.33
2023-04-04T21:34:12.429Z,-0.33
2023-04-04T21:36:41.354Z,-0.36
2023-04-04T21:39:12.453Z,-0.39
2023-04-04T21:41:40.660Z,-0.38
2023-04-04T21:44:10.887Z,-0.39
2023-04-04T21:46:40.273Z,-0.41
2023-04-04T21:49:10.492Z,-0.41
2023-04-04T21:51:38.596Z,-0.48
2023-04-04T21:54:07.398Z,-0.50
2023-04-04T21:56:35.399Z,-0.66
2023-04-04T21:59:05.114Z,-0.69
2023-04-04T22:01:33.076Z,-0.72
2023-04-04T22:04:01.243Z,-0.69
2023-04-04T22:06:35.035Z,-0.73
2023-04-04T22:09:04.116Z,-0.81
2023-04-04T22:11:34.740Z,-0.81
2023-04-04T22:14:06.862Z,-0.83
2023-04-04T22:16:39.389Z,-0.88
2023-04-04T22:19:10.716Z,-0.91
2023-04-04T22:21:46.618Z,-0.88
2023-04-04T22:24:17.842Z,-0.88
2023-04-04T22:26:46.654Z,-0.89
2023-04-04T22:29:14.679Z,-0.86
2023-04-04T22:31:42.486Z,-0.89
2023-04-04T22:34:11.858Z,-0.90
2023-04-04T22:36:43.684Z,-0.86
2023-04-04T22:39:16.469Z,-0.88
2023-04-04T22:41:44.345Z,-0.90
2023-04-04T22:44:12.047Z,-0.95
2023-04-04T22:46:39.846Z,-1.02
2023-04-04T22:49:08.796Z,-1.10
2023-04-04T22:51:43.974Z,-1.17
2023-04-04T22:54:15.469Z,-1.25
2023-04-04T22:56:43.317Z,-1.31
2023-04-04T22:59:11.476Z,-1.40
2023-04-04T23:01:39.442Z,-1.44
2023-04-04T23:04:07.462Z,-1.42
2023-04-04T23:06:35.756Z,-1.40
2023-04-04T23:09:03.490Z,-1.41
2023-04-04T23:11:32.567Z,-1.39
2023-04-04T23:14:00.558Z,-1.36
2023-04-04T23:16:31.001Z,-1.33
2023-04-04T23:18:58.728Z,-1.32
2023-04-04T23:21:28.703Z,-1.31
2023-04-04T23:23:57.522Z,-1.30
2023-04-04T23:26:25.333Z,-1.30
2023-04-04T23:28:56.740Z,-1.28
2023-04-04T23:31:25.613Z,-1.25
2023-04-04T23:33:55.740Z,-1.26
2023-04-04T23:36:23.881Z,-1.24
2023-04-04T23:38:51.595Z,-1.24
2023-04-04T23:41:19.292Z,-1.22
2023-04-04T23:43:49.182Z,-1.22
2023-04-04T23:46:18.327Z,-1.22
2023-04-04T23:48:46.466Z,-1.21
2023-04-04T23:51:16.062Z,-1.18
2023-04-04T23:53:44.078Z,-1.15
2023-04-04T23:56:12.367Z,-1.13
2023-04-04T23:58:40.469Z,-1.20
